createdAt,value
2023-03-29T00:00:57.605Z,6.40
2023-03-29T00:01:57.660Z,6.41
2023-03-29T00:02:57.697Z,6.43
2023-03-29T00:03:58.819Z,6.43
2023-03-29T00:04:57.586Z,6.41
2023-03-29T00:05:57.589Z,6.44
2023-03-29T00:06:57.549Z,6.43
2023-03-29T00:07:57.540Z,6.43
2023-03-29T00:08:57.517Z,6.43
2023-03-29T00:09:57.518Z,6.43
2023-03-29T00:10:57.541Z,6.41
2023-03-29T00:11:57.503Z,6.46
2023-03-29T00:12:57.484Z,6.43
2023-03-29T00:13:57.474Z,6.44
2023-03-29T00:14:57.484Z,6.46
2023-03-29T00:15:57.459Z,6.44
2023-03-29T00:16:57.459Z,6.43
2023-03-29T00:17:57.441Z,6.44
2023-03-29T00:18:57.431Z,6.44
2023-03-29T00:19:57.403Z,6.44
2023-03-29T00:20:57.693Z,6.43
2023-03-29T00:21:57.369Z,6.44
2023-03-29T00:22:57.375Z,6.43
2023-03-29T00:23:57.332Z,6.44
2023-03-29T00:24:57.336Z,6.44
2023-03-29T00:25:57.316Z,6.43
2023-03-29T00:26:57.314Z,6.43
2023-03-29T00:27:57.312Z,6.41
2023-03-29T00:29:00.213Z,6.38
2023-03-29T00:29:57.301Z,6.37
2023-03-29T00:30:57.307Z,6.34
2023-03-29T00:31:57.289Z,6.34
2023-03-29T00:32:57.449Z,6.34
2023-03-29T00:33:57.234Z,6.33
2023-03-29T00:34:57.242Z,6.33
2023-03-29T00:35:57.255Z,6.33
2023-03-29T00:36:57.204Z,6.28
2023-03-29T00:37:57.205Z,6.27
2023-03-29T00:38:57.182Z,6.22
2023-03-29T00:39:57.193Z,6.22
2023-03-29T00:40:57.148Z,6.22
2023-03-29T00:41:57.130Z,6.19
2023-03-29T00:42:57.142Z,6.21
2023-03-29T00:43:57.119Z,6.19
2023-03-29T00:44:57.113Z,6.19
2023-03-29T00:45:57.102Z,6.18
2023-03-29T00:46:57.082Z,6.18
2023-03-29T00:47:57.408Z,6.17
2023-03-29T00:48:57.074Z,6.18
2023-03-29T00:49:57.072Z,6.18
2023-03-29T00:50:57.033Z,6.17
2023-03-29T00:51:57.020Z,6.18
2023-03-29T00:52:57.029Z,6.18
2023-03-29T00:53:57.002Z,6.18
2023-03-29T00:54:56.982Z,6.17
2023-03-29T00:55:56.986Z,6.17
2023-03-29T00:57:05.045Z,6.21
2023-03-29T00:57:56.955Z,6.22
2023-03-29T00:59:06.756Z,6.21
2023-03-29T01:00:05.737Z,6.22
2023-03-29T01:00:57.408Z,6.21
2023-03-29T01:01:56.945Z,6.21
2023-03-29T01:02:56.967Z,6.19
2023-03-29T01:03:56.913Z,6.21
2023-03-29T01:04:56.867Z,6.19
2023-03-29T01:05:56.856Z,6.18
2023-03-29T01:06:57.004Z,6.19
2023-03-29T01:07:56.843Z,6.19
2023-03-29T01:08:56.825Z,6.21
2023-03-29T01:09:56.844Z,6.18
2023-03-29T01:10:57.112Z,6.19
2023-03-29T01:11:56.797Z,6.22
2023-03-29T01:12:56.808Z,6.22
2023-03-29T01:13:56.764Z,6.22
2023-03-29T01:14:56.743Z,6.25
2023-03-29T01:15:56.758Z,6.22
2023-03-29T01:16:56.742Z,6.25
2023-03-29T01:17:56.742Z,6.22
2023-03-29T01:18:56.725Z,6.22
2023-03-29T01:19:56.729Z,6.25
2023-03-29T01:20:56.693Z,6.22
2023-03-29T01:21:56.692Z,6.22
2023-03-29T01:22:56.664Z,6.19
2023-03-29T01:23:56.654Z,6.19
2023-03-29T01:24:56.645Z,6.21
2023-03-29T01:25:56.651Z,6.21
2023-03-29T01:26:56.616Z,6.19
2023-03-29T01:27:56.610Z,6.18
2023-03-29T01:28:56.588Z,6.18
2023-03-29T01:29:56.576Z,6.17
2023-03-29T01:30:56.886Z,6.19
2023-03-29T01:31:56.589Z,6.21
2023-03-29T01:32:56.612Z,6.21
2023-03-29T01:33:57.260Z,6.22
2023-03-29T01:34:56.541Z,6.25
2023-03-29T01:35:56.609Z,6.27
2023-03-29T01:36:56.497Z,6.27
2023-03-29T01:37:56.520Z,6.28
2023-03-29T01:38:56.486Z,6.30
2023-03-29T01:39:56.486Z,6.31
2023-03-29T01:40:56.454Z,6.31
2023-03-29T01:41:56.457Z,6.31
2023-03-29T01:42:56.479Z,6.31
2023-03-29T01:43:56.411Z,6.31
2023-03-29T01:44:56.467Z,6.30
2023-03-29T01:45:56.472Z,6.30
2023-03-29T01:46:56.380Z,6.31
2023-03-29T01:47:56.387Z,6.31
2023-03-29T01:48:56.336Z,6.33
2023-03-29T01:49:56.360Z,6.33
2023-03-29T01:50:56.363Z,6.30
2023-03-29T01:51:56.343Z,6.30
2023-03-29T01:52:56.331Z,6.33
2023-03-29T01:53:56.331Z,6.31
2023-03-29T01:54:56.277Z,6.33
2023-03-29T01:55:56.276Z,6.34
2023-03-29T01:56:56.320Z,6.34
2023-03-29T01:57:56.302Z,6.33
2023-03-29T01:58:56.235Z,6.36
2023-03-29T01:59:56.266Z,6.36
2023-03-29T02:00:56.582Z,6.36
2023-03-29T02:01:56.291Z,6.38
2023-03-29T02:02:56.394Z,6.38
2023-03-29T02:03:56.176Z,6.37
2023-03-29T02:04:56.179Z,6.38
2023-03-29T02:05:56.176Z,6.40
2023-03-29T02:06:56.148Z,6.41
2023-03-29T02:07:56.147Z,6.41
2023-03-29T02:08:56.138Z,6.41
2023-03-29T02:09:56.108Z,6.41
2023-03-29T02:10:56.120Z,6.41
2023-03-29T02:11:56.107Z,6.43
2023-03-29T02:12:56.107Z,6.43
2023-03-29T02:13:56.339Z,6.46
2023-03-29T02:14:56.033Z,6.44
2023-03-29T02:15:56.073Z,6.46
2023-03-29T02:16:56.026Z,6.46
2023-03-29T02:17:56.054Z,6.48
2023-03-29T02:18:56.334Z,6.48
2023-03-29T02:19:55.991Z,6.48
2023-03-29T02:20:55.985Z,6.46
2023-03-29T02:21:55.970Z,6.48
2023-03-29T02:22:55.968Z,6.46
2023-03-29T02:23:55.948Z,6.46
2023-03-29T02:24:55.948Z,6.48
2023-03-29T02:25:55.912Z,6.48
2023-03-29T02:26:55.914Z,6.49
2023-03-29T02:27:55.924Z,6.48
2023-03-29T02:28:55.919Z,6.49
2023-03-29T02:29:55.876Z,6.49
2023-03-29T02:30:55.918Z,6.49
2023-03-29T02:31:55.863Z,6.49
2023-03-29T02:32:55.916Z,6.51
2023-03-29T02:33:55.850Z,6.51
2023-03-29T02:34:55.850Z,6.52
2023-03-29T02:35:56.189Z,6.52
2023-03-29T02:36:55.792Z,6.51
2023-03-29T02:37:55.791Z,6.54
2023-03-29T02:38:55.783Z,6.54
2023-03-29T02:39:55.759Z,6.56
2023-03-29T02:40:55.769Z,6.55
2023-03-29T02:42:03.083Z,6.59
2023-03-29T02:43:03.067Z,6.59
2023-03-29T02:44:04.644Z,6.61
2023-03-29T02:44:55.688Z,6.61
2023-03-29T02:45:55.687Z,6.61
2023-03-29T02:46:55.796Z,6.59
2023-03-29T02:47:55.714Z,6.59
2023-03-29T02:48:55.662Z,6.59
2023-03-29T02:49:55.655Z,6.59
2023-03-29T02:50:55.620Z,6.61
2023-03-29T02:51:55.626Z,6.59
2023-03-29T02:52:55.641Z,6.59
2023-03-29T02:53:55.582Z,6.59
2023-03-29T02:54:55.914Z,6.59
2023-03-29T02:55:55.615Z,6.59
2023-03-29T02:56:55.588Z,6.61
2023-03-29T02:57:55.571Z,6.62
2023-03-29T02:58:55.581Z,6.64
2023-03-29T02:59:55.534Z,6.64
2023-03-29T03:00:55.519Z,6.64
2023-03-29T03:01:55.552Z,6.64
2023-03-29T03:02:55.624Z,6.64
2023-03-29T03:03:55.568Z,6.64
2023-03-29T03:04:55.491Z,6.66
2023-03-29T03:05:55.456Z,6.69
2023-03-29T03:06:55.448Z,6.69
2023-03-29T03:07:55.474Z,6.69
2023-03-29T03:08:55.432Z,6.69
2023-03-29T03:09:55.399Z,6.71
2023-03-29T03:10:55.420Z,6.71
2023-03-29T03:11:55.393Z,6.73
2023-03-29T03:12:55.373Z,6.74
2023-03-29T03:13:55.387Z,6.73
2023-03-29T03:14:55.364Z,6.77
2023-03-29T03:15:55.450Z,6.77
2023-03-29T03:16:55.614Z,6.79
2023-03-29T03:17:55.364Z,6.79
2023-03-29T03:18:55.301Z,6.80
2023-03-29T03:19:55.295Z,6.80
2023-03-29T03:20:55.323Z,6.81
2023-03-29T03:21:55.256Z,6.80
2023-03-29T03:22:55.323Z,6.81
2023-03-29T03:23:55.272Z,6.81
2023-03-29T03:24:55.244Z,6.85
2023-03-29T03:25:55.282Z,6.84
2023-03-29T03:26:55.238Z,6.84
2023-03-29T03:27:55.205Z,6.85
2023-03-29T03:28:55.177Z,6.85
2023-03-29T03:29:55.190Z,6.85
2023-03-29T03:30:55.168Z,6.87
2023-03-29T03:31:55.163Z,6.87
2023-03-29T03:32:55.216Z,6.85
2023-03-29T03:33:55.118Z,6.85
2023-03-29T03:34:55.106Z,6.88
2023-03-29T03:35:55.138Z,6.87
2023-03-29T03:36:55.119Z,6.87
2023-03-29T03:37:55.085Z,6.87
2023-03-29T03:38:55.073Z,6.88
2023-03-29T03:39:55.079Z,6.88
2023-03-29T03:40:55.073Z,6.88
2023-03-29T03:41:55.038Z,6.88
2023-03-29T03:42:55.074Z,6.88
2023-03-29T03:43:55.016Z,6.89
2023-03-29T03:44:55.003Z,6.91
2023-03-29T03:45:55.077Z,6.89
2023-03-29T03:46:54.974Z,6.92
2023-03-29T03:47:55.025Z,6.92
2023-03-29T03:48:54.969Z,6.94
2023-03-29T03:49:54.966Z,6.94
2023-03-29T03:50:54.933Z,6.95
2023-03-29T03:51:54.932Z,6.95
2023-03-29T03:52:54.930Z,6.97
2023-03-29T03:53:54.905Z,6.97
2023-03-29T03:54:54.883Z,6.97
2023-03-29T03:55:54.922Z,6.97
2023-03-29T03:56:54.898Z,6.98
2023-03-29T03:57:54.843Z,6.98
2023-03-29T03:58:54.865Z,6.99
2023-03-29T03:59:54.861Z,6.99
2023-03-29T04:00:54.811Z,6.99
2023-03-29T04:01:54.893Z,6.99
2023-03-29T04:02:54.872Z,7.02
2023-03-29T04:03:54.914Z,7.03
2023-03-29T04:04:54.798Z,7.03
2023-03-29T04:05:54.764Z,7.05
2023-03-29T04:06:54.748Z,7.03
2023-03-29T04:07:54.766Z,7.06
2023-03-29T04:08:54.733Z,7.06
2023-03-29T04:09:54.726Z,7.06
2023-03-29T04:10:54.739Z,7.06
2023-03-29T04:11:54.854Z,7.07
2023-03-29T04:12:54.668Z,7.07
2023-03-29T04:13:54.690Z,7.06
2023-03-29T04:14:54.645Z,7.09
2023-03-29T04:15:54.668Z,7.09
2023-03-29T04:16:54.648Z,7.09
2023-03-29T04:17:54.960Z,7.09
2023-03-29T04:18:54.667Z,7.10
2023-03-29T04:19:54.596Z,7.10
2023-03-29T04:20:54.623Z,7.10
2023-03-29T04:21:54.593Z,7.10
2023-03-29T04:23:01.963Z,7.12
2023-03-29T04:24:01.603Z,7.12
2023-03-29T04:25:03.897Z,7.10
2023-03-29T04:26:01.957Z,7.12
2023-03-29T04:27:01.938Z,7.12
2023-03-29T04:27:56.381Z,7.13
2023-03-29T04:28:54.844Z,7.12
2023-03-29T04:29:58.139Z,7.10
2023-03-29T04:30:57.368Z,7.12
2023-03-29T04:31:54.481Z,7.13
2023-03-29T04:32:54.526Z,7.13
2023-03-29T04:33:54.438Z,7.13
2023-03-29T04:34:54.439Z,7.15
2023-03-29T04:35:54.460Z,7.16
2023-03-29T04:36:54.401Z,7.15
2023-03-29T04:37:54.414Z,7.16
2023-03-29T04:38:54.417Z,7.16
2023-03-29T04:39:54.688Z,7.16
2023-03-29T04:40:54.364Z,7.16
2023-03-29T04:41:54.493Z,7.16
2023-03-29T04:42:54.385Z,7.17
2023-03-29T04:43:54.333Z,7.16
2023-03-29T04:44:54.420Z,7.16
2023-03-29T04:45:54.319Z,7.15
2023-03-29T04:46:54.353Z,7.16
2023-03-29T04:47:54.357Z,7.15
2023-03-29T04:48:54.271Z,7.15
2023-03-29T04:49:54.297Z,7.15
2023-03-29T04:50:54.280Z,7.15
2023-03-29T04:51:54.251Z,7.15
2023-03-29T04:52:54.234Z,7.16
2023-03-29T04:53:54.239Z,7.16
2023-03-29T04:54:54.239Z,7.15
2023-03-29T04:55:54.188Z,7.16
2023-03-29T04:56:54.269Z,7.17
2023-03-29T04:57:54.185Z,7.17
2023-03-29T04:58:54.166Z,7.17
2023-03-29T04:59:54.184Z,7.16
2023-03-29T05:00:54.149Z,7.16
2023-03-29T05:01:55.881Z,7.17
2023-03-29T05:02:54.185Z,7.20
2023-03-29T05:03:54.121Z,7.21
2023-03-29T05:04:54.115Z,7.21
2023-03-29T05:05:54.102Z,7.23
2023-03-29T05:06:54.076Z,7.21
2023-03-29T05:07:54.078Z,7.21
2023-03-29T05:08:54.063Z,7.23
2023-03-29T05:09:54.038Z,7.23
2023-03-29T05:10:54.017Z,7.23
2023-03-29T05:11:54.040Z,7.25
2023-03-29T05:12:56.880Z,7.25
2023-03-29T05:13:53.999Z,7.27
2023-03-29T05:14:54.005Z,7.28
2023-03-29T05:15:54.021Z,7.30
2023-03-29T05:16:53.971Z,7.28
2023-03-29T05:17:54.000Z,7.27
2023-03-29T05:18:53.989Z,7.28
2023-03-29T05:19:53.941Z,7.30
2023-03-29T05:20:53.910Z,7.30
2023-03-29T05:21:53.921Z,7.31
2023-03-29T05:22:53.897Z,7.31
2023-03-29T05:23:53.888Z,7.31
2023-03-29T05:24:53.878Z,7.31
2023-03-29T05:25:54.134Z,7.31
2023-03-29T05:26:53.840Z,7.31
2023-03-29T05:27:53.854Z,7.32
2023-03-29T05:28:55.736Z,7.34
2023-03-29T05:29:53.810Z,7.34
2023-03-29T05:30:53.797Z,7.34
2023-03-29T05:31:55.756Z,7.35
2023-03-29T05:32:54.159Z,7.35
2023-03-29T05:33:53.758Z,7.39
2023-03-29T05:34:53.753Z,7.37
2023-03-29T05:35:53.776Z,7.40
2023-03-29T05:36:53.742Z,7.40
2023-03-29T05:37:53.742Z,7.40
2023-03-29T05:38:53.705Z,7.42
2023-03-29T05:39:53.697Z,7.42
2023-03-29T05:40:54.676Z,7.42
2023-03-29T05:41:53.703Z,7.43
2023-03-29T05:42:53.714Z,7.45
2023-03-29T05:43:53.646Z,7.45
2023-03-29T05:44:54.570Z,7.43
2023-03-29T05:45:53.660Z,7.43
2023-03-29T05:46:53.620Z,7.43
2023-03-29T05:47:53.682Z,7.43
2023-03-29T05:48:53.601Z,7.48
2023-03-29T05:49:53.575Z,7.48
2023-03-29T05:50:53.600Z,7.50
2023-03-29T05:51:53.558Z,7.50
2023-03-29T05:52:53.538Z,7.52
2023-03-29T05:53:53.568Z,7.55
2023-03-29T05:54:53.510Z,7.55
2023-03-29T05:55:53.506Z,7.53
2023-03-29T05:56:53.531Z,7.55
2023-03-29T05:57:53.512Z,7.55
2023-03-29T05:58:54.895Z,7.58
2023-03-29T05:59:53.465Z,7.60
2023-03-29T06:00:53.446Z,7.60
2023-03-29T06:01:53.509Z,7.60
2023-03-29T06:02:53.532Z,7.58
2023-03-29T06:03:53.610Z,7.61
2023-03-29T06:04:53.447Z,7.61
2023-03-29T06:05:53.407Z,7.61
2023-03-29T06:06:53.383Z,7.61
2023-03-29T06:08:00.758Z,7.64
2023-03-29T06:08:53.344Z,7.67
2023-03-29T06:10:01.728Z,7.68
2023-03-29T06:10:53.323Z,7.71
2023-03-29T06:11:53.351Z,7.71
2023-03-29T06:12:53.330Z,7.71
2023-03-29T06:13:53.309Z,7.74
2023-03-29T06:14:53.303Z,7.75
2023-03-29T06:15:53.288Z,7.79
2023-03-29T06:16:53.319Z,7.82
2023-03-29T06:17:53.291Z,7.82
2023-03-29T06:18:53.271Z,7.83
2023-03-29T06:19:53.248Z,7.85
2023-03-29T06:20:53.225Z,7.83
2023-03-29T06:21:53.266Z,7.83
2023-03-29T06:22:53.233Z,7.87
2023-03-29T06:23:53.198Z,7.90
2023-03-29T06:24:53.176Z,7.90
2023-03-29T06:25:53.204Z,7.92
2023-03-29T06:26:53.176Z,7.93
2023-03-29T06:27:53.199Z,7.97
2023-03-29T06:28:53.137Z,7.98
2023-03-29T06:29:53.225Z,8.00
2023-03-29T06:30:53.137Z,8.00
2023-03-29T06:31:53.135Z,8.01
2023-03-29T06:32:53.177Z,8.05
2023-03-29T06:33:53.104Z,8.08
2023-03-29T06:34:53.065Z,8.10
2023-03-29T06:35:53.154Z,8.12
2023-03-29T06:36:54.780Z,8.18
2023-03-29T06:37:53.357Z,8.18
2023-03-29T06:38:53.024Z,8.16
2023-03-29T06:39:53.407Z,8.16
2023-03-29T06:40:53.271Z,8.18
2023-03-29T06:41:53.332Z,8.18
2023-03-29T06:42:53.046Z,8.19
2023-03-29T06:43:52.975Z,8.20
2023-03-29T06:44:53.005Z,8.22
2023-03-29T06:45:53.021Z,8.23
2023-03-29T06:46:53.030Z,8.25
2023-03-29T06:47:52.973Z,8.26
2023-03-29T06:48:52.930Z,8.29
2023-03-29T06:49:52.916Z,8.33
2023-03-29T06:50:52.892Z,8.36
2023-03-29T06:51:52.886Z,8.43
2023-03-29T06:52:52.898Z,8.47
2023-03-29T06:53:52.858Z,8.52
2023-03-29T06:54:52.842Z,8.56
2023-03-29T06:55:52.860Z,8.65
2023-03-29T06:56:53.052Z,8.73
2023-03-29T06:57:52.838Z,8.79
2023-03-29T06:58:52.797Z,8.87
2023-03-29T06:59:52.793Z,8.95
2023-03-29T07:00:52.794Z,8.98
2023-03-29T07:01:52.862Z,8.98
2023-03-29T07:02:52.798Z,8.98
2023-03-29T07:03:52.761Z,9.02
2023-03-29T07:04:52.740Z,8.99
2023-03-29T07:05:52.744Z,8.98
2023-03-29T07:06:52.712Z,8.95
2023-03-29T07:07:52.721Z,8.94
2023-03-29T07:08:52.750Z,8.92
2023-03-29T07:09:52.661Z,8.87
2023-03-29T07:10:52.907Z,8.83
2023-03-29T07:11:52.661Z,8.81
2023-03-29T07:12:52.671Z,8.81
2023-03-29T07:13:52.622Z,8.79
2023-03-29T07:14:52.629Z,8.79
2023-03-29T07:15:52.624Z,8.79
2023-03-29T07:16:52.595Z,8.81
2023-03-29T07:17:52.680Z,8.81
2023-03-29T07:18:52.578Z,8.83
2023-03-29T07:19:52.567Z,8.86
2023-03-29T07:20:52.590Z,8.87
2023-03-29T07:21:52.557Z,8.89
2023-03-29T07:22:52.548Z,8.92
2023-03-29T07:23:54.273Z,8.98
2023-03-29T07:24:52.507Z,9.02
2023-03-29T07:25:52.488Z,9.10
2023-03-29T07:27:03.159Z,9.11
2023-03-29T07:27:53.470Z,9.13
2023-03-29T07:28:52.456Z,9.15
2023-03-29T07:29:52.426Z,9.20
2023-03-29T07:30:52.445Z,9.26
2023-03-29T07:31:52.405Z,9.28
2023-03-29T07:32:52.535Z,9.29
2023-03-29T07:33:52.519Z,9.31
2023-03-29T07:34:52.409Z,9.32
2023-03-29T07:35:52.386Z,9.31
2023-03-29T07:36:52.408Z,9.32
2023-03-29T07:37:52.380Z,9.35
2023-03-29T07:38:53.997Z,9.38
2023-03-29T07:39:52.360Z,9.40
2023-03-29T07:40:52.331Z,9.48
2023-03-29T07:41:52.309Z,9.50
2023-03-29T07:42:52.316Z,9.54
2023-03-29T07:43:52.618Z,9.56
2023-03-29T07:44:52.276Z,9.58
2023-03-29T07:45:52.290Z,9.53
2023-03-29T07:47:00.107Z,9.51
2023-03-29T07:47:59.451Z,9.57
2023-03-29T07:48:59.219Z,9.64
2023-03-29T07:49:59.240Z,9.71
2023-03-29T07:50:59.584Z,9.79
2023-03-29T07:51:59.215Z,9.89
2023-03-29T07:52:52.175Z,9.96
2023-03-29T07:53:52.198Z,9.97
2023-03-29T07:54:52.152Z,9.94
2023-03-29T07:55:52.201Z,9.99
2023-03-29T07:56:52.136Z,10.07
2023-03-29T07:57:52.152Z,10.12
2023-03-29T07:58:52.104Z,10.22
2023-03-29T07:59:52.099Z,10.33
2023-03-29T08:00:52.103Z,10.41
2023-03-29T08:01:52.077Z,10.51
2023-03-29T08:02:52.145Z,10.52
2023-03-29T08:03:52.273Z,10.56
2023-03-29T08:04:52.048Z,10.56
2023-03-29T08:05:52.044Z,10.56
2023-03-29T08:06:52.011Z,10.60
2023-03-29T08:07:52.001Z,10.63
2023-03-29T08:08:51.978Z,10.60
2023-03-29T08:09:51.977Z,10.60
2023-03-29T08:10:52.010Z,10.60
2023-03-29T08:11:51.989Z,10.60
2023-03-29T08:12:52.527Z,10.64
2023-03-29T08:13:51.969Z,10.74
2023-03-29T08:14:51.937Z,10.78
2023-03-29T08:15:51.920Z,10.76
2023-03-29T08:16:53.968Z,10.74
2023-03-29T08:17:51.931Z,10.78
2023-03-29T08:18:51.898Z,10.82
2023-03-29T08:19:52.307Z,10.85
2023-03-29T08:20:51.861Z,10.86
2023-03-29T08:21:51.825Z,10.96
2023-03-29T08:22:51.920Z,11.07
2023-03-29T08:23:51.835Z,11.11
2023-03-29T08:24:51.804Z,11.10
2023-03-29T08:25:51.827Z,11.15
2023-03-29T08:26:51.775Z,11.22
2023-03-29T08:27:51.796Z,11.27
2023-03-29T08:28:51.761Z,11.35
2023-03-29T08:29:51.828Z,11.40
2023-03-29T08:30:51.731Z,11.42
2023-03-29T08:31:51.724Z,11.43
2023-03-29T08:32:54.454Z,11.44
2023-03-29T08:33:54.404Z,11.46
2023-03-29T08:34:51.700Z,11.46
2023-03-29T08:35:51.690Z,11.52
2023-03-29T08:36:51.679Z,11.57
2023-03-29T08:37:51.666Z,11.62
2023-03-29T08:38:51.646Z,11.60
2023-03-29T08:39:51.888Z,11.60
2023-03-29T08:40:51.627Z,11.58
2023-03-29T08:41:51.620Z,11.60
2023-03-29T08:42:51.620Z,11.58
2023-03-29T08:43:51.631Z,11.61
2023-03-29T08:44:51.586Z,11.64
2023-03-29T08:45:51.661Z,11.65
2023-03-29T08:46:51.620Z,11.67
2023-03-29T08:47:54.364Z,11.65
2023-03-29T08:48:51.526Z,11.64
2023-03-29T08:49:51.524Z,11.72
2023-03-29T08:50:51.518Z,11.79
2023-03-29T08:51:51.487Z,11.80
2023-03-29T08:52:51.611Z,11.82
2023-03-29T08:53:51.489Z,11.85
2023-03-29T08:54:51.568Z,11.83
2023-03-29T08:55:52.454Z,11.85
2023-03-29T08:56:51.651Z,11.85
2023-03-29T08:57:52.337Z,11.90
2023-03-29T08:58:51.431Z,11.86
2023-03-29T08:59:51.443Z,11.86
2023-03-29T09:00:51.425Z,11.88
2023-03-29T09:01:51.389Z,11.90
2023-03-29T09:02:51.521Z,11.94
2023-03-29T09:03:51.390Z,11.83
2023-03-29T09:04:51.385Z,11.79
2023-03-29T09:05:51.343Z,11.76
2023-03-29T09:06:51.312Z,11.79
2023-03-29T09:07:51.321Z,11.86
2023-03-29T09:08:51.363Z,11.86
2023-03-29T09:09:51.306Z,11.85
2023-03-29T09:10:51.271Z,11.83
2023-03-29T09:11:51.304Z,11.86
2023-03-29T09:12:51.290Z,11.80
2023-03-29T09:13:51.231Z,11.85
2023-03-29T09:14:51.279Z,11.94
2023-03-29T09:15:51.245Z,12.01
2023-03-29T09:16:51.199Z,12.12
2023-03-29T09:17:51.341Z,12.17
2023-03-29T09:18:51.245Z,12.21
2023-03-29T09:19:51.189Z,12.28
2023-03-29T09:20:51.478Z,12.29
2023-03-29T09:21:51.228Z,12.27
2023-03-29T09:22:51.182Z,12.29
2023-03-29T09:23:52.464Z,12.34
2023-03-29T09:24:51.145Z,12.38
2023-03-29T09:25:54.074Z,12.42
2023-03-29T09:26:51.099Z,12.54
2023-03-29T09:27:51.177Z,12.65
2023-03-29T09:28:51.065Z,12.68
2023-03-29T09:29:51.080Z,12.42
2023-03-29T09:30:51.174Z,12.39
2023-03-29T09:31:51.046Z,12.47
2023-03-29T09:32:51.202Z,12.49
2023-03-29T09:33:51.023Z,12.50
2023-03-29T09:34:59.003Z,12.53
2023-03-29T09:35:50.993Z,12.59
2023-03-29T09:36:50.962Z,12.64
2023-03-29T09:37:51.013Z,12.67
2023-03-29T09:38:50.956Z,12.71
2023-03-29T09:39:50.967Z,12.65
2023-03-29T09:40:50.941Z,12.65
2023-03-29T09:41:50.900Z,12.72
2023-03-29T09:42:50.955Z,12.83
2023-03-29T09:43:50.908Z,12.96
2023-03-29T09:44:50.933Z,13.01
2023-03-29T09:45:50.881Z,13.04
2023-03-29T09:46:50.847Z,13.07
2023-03-29T09:47:50.874Z,13.05
2023-03-29T09:48:50.848Z,13.04
2023-03-29T09:49:50.820Z,13.07
2023-03-29T09:50:50.808Z,13.05
2023-03-29T09:51:50.799Z,13.12
2023-03-29T09:52:50.817Z,13.17
2023-03-29T09:53:50.803Z,13.25
2023-03-29T09:54:50.764Z,13.25
2023-03-29T09:55:50.762Z,13.30
2023-03-29T09:56:50.813Z,13.36
2023-03-29T09:57:50.746Z,13.36
2023-03-29T09:58:50.725Z,13.38
2023-03-29T09:59:50.712Z,13.39
2023-03-29T10:00:50.730Z,13.38
2023-03-29T10:01:50.727Z,13.42
2023-03-29T10:02:50.714Z,13.44
2023-03-29T10:03:50.756Z,13.46
2023-03-29T10:04:50.666Z,13.46
2023-03-29T10:05:50.651Z,13.55
2023-03-29T10:06:50.624Z,13.57
2023-03-29T10:07:50.656Z,13.64
2023-03-29T10:08:50.613Z,13.63
2023-03-29T10:09:50.673Z,13.59
2023-03-29T10:10:50.633Z,13.54
2023-03-29T10:11:50.589Z,13.57
2023-03-29T10:12:50.537Z,13.62
2023-03-29T10:13:50.585Z,13.66
2023-03-29T10:14:53.046Z,13.73
2023-03-29T10:15:50.534Z,13.69
2023-03-29T10:16:50.604Z,13.59
2023-03-29T10:17:51.589Z,13.59
2023-03-29T10:18:50.523Z,13.55
2023-03-29T10:19:50.543Z,13.48
2023-03-29T10:20:50.536Z,13.48
2023-03-29T10:21:50.502Z,13.46
2023-03-29T10:22:50.807Z,13.44
2023-03-29T10:23:50.491Z,13.44
2023-03-29T10:24:50.462Z,13.41
2023-03-29T10:25:50.504Z,13.44
2023-03-29T10:26:50.401Z,13.42
2023-03-29T10:27:50.441Z,13.46
2023-03-29T10:28:50.376Z,13.55
2023-03-29T10:29:50.387Z,13.64
2023-03-29T10:30:50.340Z,13.75
2023-03-29T10:31:50.373Z,13.91
2023-03-29T10:32:50.358Z,13.95
2023-03-29T10:33:50.330Z,13.97
2023-03-29T10:34:50.292Z,14.06
2023-03-29T10:35:50.279Z,14.21
2023-03-29T10:36:50.281Z,14.33
2023-03-29T10:37:50.267Z,14.42
2023-03-29T10:38:50.271Z,14.50
2023-03-29T10:39:50.234Z,14.54
2023-03-29T10:40:50.234Z,14.65
2023-03-29T10:41:50.224Z,14.84
2023-03-29T10:42:50.213Z,14.95
2023-03-29T10:43:52.916Z,14.96
2023-03-29T10:44:50.199Z,15.14
2023-03-29T10:45:50.200Z,15.28
2023-03-29T10:46:50.171Z,15.39
2023-03-29T10:47:50.233Z,15.46
2023-03-29T10:48:50.161Z,15.46
2023-03-29T10:49:50.945Z,15.47
2023-03-29T10:50:50.126Z,15.53
2023-03-29T10:51:50.117Z,15.41
2023-03-29T10:52:50.102Z,15.11
2023-03-29T10:53:50.117Z,15.01
2023-03-29T10:54:50.098Z,14.95
2023-03-29T10:55:50.067Z,14.86
2023-03-29T10:56:52.349Z,14.81
2023-03-29T10:57:50.046Z,14.78
2023-03-29T10:58:50.058Z,14.89
2023-03-29T10:59:50.008Z,15.02
2023-03-29T11:00:50.000Z,15.13
2023-03-29T11:01:50.109Z,15.25
2023-03-29T11:02:50.060Z,15.38
2023-03-29T11:03:50.061Z,15.29
2023-03-29T11:04:49.960Z,15.23
2023-03-29T11:05:49.958Z,15.23
2023-03-29T11:06:49.929Z,15.21
2023-03-29T11:07:49.973Z,15.16
2023-03-29T11:08:49.930Z,15.13
2023-03-29T11:09:49.945Z,15.11
2023-03-29T11:10:49.890Z,15.16
2023-03-29T11:11:51.575Z,15.21
2023-03-29T11:12:50.865Z,15.21
2023-03-29T11:13:58.730Z,15.21
2023-03-29T11:14:59.697Z,15.20
2023-03-29T11:15:56.933Z,15.27
2023-03-29T11:16:56.838Z,15.29
2023-03-29T11:17:58.224Z,15.28
2023-03-29T11:18:49.841Z,15.29
2023-03-29T11:19:58.107Z,15.34
2023-03-29T11:20:49.766Z,15.38
2023-03-29T11:21:49.767Z,15.46
2023-03-29T11:22:49.758Z,15.41
2023-03-29T11:23:49.775Z,15.43
2023-03-29T11:24:49.732Z,15.54
2023-03-29T11:25:49.756Z,15.62
2023-03-29T11:26:49.721Z,15.65
2023-03-29T11:27:49.807Z,15.68
2023-03-29T11:28:49.895Z,15.68
2023-03-29T11:29:49.802Z,15.75
2023-03-29T11:30:49.902Z,15.87
2023-03-29T11:31:49.695Z,15.96
2023-03-29T11:32:49.675Z,16.07
2023-03-29T11:33:49.642Z,16.12
2023-03-29T11:34:49.667Z,16.15
2023-03-29T11:35:49.671Z,16.24
2023-03-29T11:36:49.617Z,16.33
2023-03-29T11:37:49.602Z,16.33
2023-03-29T11:38:49.624Z,16.15
2023-03-29T11:39:49.559Z,16.00
2023-03-29T11:40:49.562Z,15.93
2023-03-29T11:41:49.559Z,15.84
2023-03-29T11:42:49.532Z,15.75
2023-03-29T11:43:49.559Z,15.62
2023-03-29T11:44:49.500Z,15.46
2023-03-29T11:45:49.493Z,15.44
2023-03-29T11:46:49.571Z,15.43
2023-03-29T11:47:49.528Z,15.44
2023-03-29T11:48:49.477Z,15.50
2023-03-29T11:49:49.440Z,15.50
2023-03-29T11:50:49.466Z,15.54
2023-03-29T11:51:49.450Z,15.59
2023-03-29T11:52:49.411Z,15.62
2023-03-29T11:53:49.436Z,15.49
2023-03-29T11:54:49.397Z,15.43
2023-03-29T11:55:49.402Z,15.60
2023-03-29T11:56:49.411Z,15.76
2023-03-29T11:57:49.351Z,15.94
2023-03-29T11:58:49.421Z,16.00
2023-03-29T11:59:49.372Z,16.14
2023-03-29T12:00:49.368Z,16.27
2023-03-29T12:01:49.618Z,16.35
2023-03-29T12:02:49.408Z,16.35
2023-03-29T12:03:49.334Z,16.39
2023-03-29T12:04:49.379Z,16.34
2023-03-29T12:05:49.283Z,16.45
2023-03-29T12:06:49.244Z,16.52
2023-03-29T12:07:51.060Z,16.60
2023-03-29T12:08:49.238Z,16.64
2023-03-29T12:09:49.214Z,16.68
2023-03-29T12:10:49.201Z,16.75
2023-03-29T12:11:49.195Z,16.75
2023-03-29T12:12:49.173Z,16.73
2023-03-29T12:13:50.722Z,16.81
2023-03-29T12:14:49.162Z,16.88
2023-03-29T12:15:49.964Z,16.88
2023-03-29T12:16:49.323Z,16.88
2023-03-29T12:17:49.233Z,16.96
2023-03-29T12:18:49.127Z,16.85
2023-03-29T12:19:49.096Z,16.75
2023-03-29T12:20:49.091Z,16.67
2023-03-29T12:21:49.068Z,16.52
2023-03-29T12:22:49.135Z,16.38
2023-03-29T12:23:49.063Z,16.09
2023-03-29T12:24:49.081Z,16.09
2023-03-29T12:25:49.013Z,16.25
2023-03-29T12:26:49.037Z,16.31
2023-03-29T12:27:48.990Z,16.41
2023-03-29T12:28:48.980Z,16.50
2023-03-29T12:29:48.968Z,16.70
2023-03-29T12:30:48.962Z,16.86
2023-03-29T12:31:48.985Z,17.07
2023-03-29T12:32:48.991Z,17.25
2023-03-29T12:33:48.949Z,17.28
2023-03-29T12:34:48.923Z,17.25
2023-03-29T12:35:48.925Z,17.22
2023-03-29T12:36:48.910Z,17.23
2023-03-29T12:37:48.869Z,17.30
2023-03-29T12:38:48.877Z,17.28
2023-03-29T12:39:48.864Z,17.34
2023-03-29T12:40:48.853Z,17.46
2023-03-29T12:41:48.828Z,17.41
2023-03-29T12:42:48.821Z,17.37
2023-03-29T12:43:48.831Z,17.36
2023-03-29T12:44:48.809Z,17.28
2023-03-29T12:45:48.901Z,17.26
2023-03-29T12:46:48.986Z,17.31
2023-03-29T12:47:48.838Z,17.40
2023-03-29T12:48:48.754Z,17.38
2023-03-29T12:49:48.770Z,17.30
2023-03-29T12:50:48.730Z,17.25
2023-03-29T12:51:48.718Z,17.11
2023-03-29T12:52:48.745Z,17.18
2023-03-29T12:53:48.712Z,17.21
2023-03-29T12:54:48.684Z,17.16
2023-03-29T12:55:48.691Z,17.22
2023-03-29T12:56:48.687Z,17.22
2023-03-29T12:57:48.643Z,17.22
2023-03-29T12:58:48.636Z,17.22
2023-03-29T12:59:55.964Z,17.03
2023-03-29T13:00:56.632Z,17.06
2023-03-29T13:01:48.629Z,17.15
2023-03-29T13:02:56.154Z,17.30
2023-03-29T13:03:48.600Z,17.41
2023-03-29T13:04:48.587Z,17.52
2023-03-29T13:05:48.578Z,17.75
2023-03-29T13:06:48.566Z,17.89
2023-03-29T13:07:48.542Z,17.96
2023-03-29T13:08:48.640Z,18.05